sensor_id;sensor_type;location;lat;lon;timestamp;P1;durP1;ratioP1;P2;durP2;ratioP2
14698;SDS011;7439;50.804;4.602;2024-01-15T00:01:10;24.23;;;14.90;;
14698;SDS011;7439;50.804;4.602;2024-01-15T00:03:38;23.50;;;16.90;;
14698;SDS011;7439;50.804;4.602;2024-01-15T00:06:05;22.37;;;15.03;;
14698;SDS011;7439;50.804;4.602;2024-01-15T00:08:32;22.87;;;16.13;;
14698;SDS011;7439;50.804;4.602;2024-01-15T00:11:01;22.50;;;15.47;;
14698;SDS011;7439;50.804;4.602;2024-01-15T00:13:30;24.03;;;14.87;;
14698;SDS011;7439;50.804;4.602;2024-01-15T00:15:57;20.27;;;13.87;;
14698;SDS011;7439;50.804;4.602;2024-01-15T00:18:25;22.87;;;14.97;;
14698;SDS011;7439;50.804;4.602;2024-01-15T00:20:52;26.00;;;16.20;;
14698;SDS011;7439;50.804;4.602;2024-01-15T00:23:19;21.87;;;14.57;;
14698;SDS011;7439;50.804;4.602;2024-01-15T00:25:46;20.53;;;14.07;;
14698;SDS011;7439;50.804;4.602;2024-01-15T00:28:15;19.37;;;12.93;;
14698;SDS011;7439;50.804;4.602;2024-01-15T00:30:42;20.47;;;13.13;;
14698;SDS011;7439;50.804;4.602;2024-01-15T00:33:10;22.67;;;13.90;;
14698;SDS011;7439;50.804;4.602;2024-01-15T00:35:37;22.37;;;13.27;;
14698;SDS011;7439;50.804;4.602;2024-01-15T00:38:05;19.70;;;13.60;;
14698;SDS011;7439;50.804;4.602;2024-01-15T00:40:32;17.80;;;12.13;;
14698;SDS011;7439;50.804;4.602;2024-01-15T00:43:00;19.77;;;12.47;;
14698;SDS011;7439;50.804;4.602;2024-01-15T00:45:28;16.80;;;11.70;;
14698;SDS011;7439;50.804;4.602;2024-01-15T00:47:56;15.30;;;10.60;;
14698;SDS011;7439;50.804;4.602;2024-01-15T00:50:24;14.40;;;10.83;;
14698;SDS011;7439;50.804;4.602;2024-01-15T00:52:52;15.37;;;11.60;;
14698;SDS011;7439;50.804;4.602;2024-01-15T00:55:19;13.40;;;10.33;;
14698;SDS011;7439;50.804;4.602;2024-01-15T00:57:46;15.37;;;10.07;;
14698;SDS011;7439;50.804;4.602;2024-01-15T01:00:14;15.07;;;9.87;;
14698;SDS011;7439;50.804;4.602;2024-01-15T01:02:42;13.57;;;10.47;;
14698;SDS011;7439;50.804;4.602;2024-01-15T01:05:10;15.70;;;11.00;;
14698;SDS011;7439;50.804;4.602;2024-01-15T01:07:37;12.03;;;9.10;;
14698;SDS011;7439;50.804;4.602;2024-01-15T01:10:04;11.77;;;8.90;;
14698;SDS011;7439;50.804;4.602;2024-01-15T01:12:32;11.77;;;8.73;;
14698;SDS011;7439;50.804;4.602;2024-01-15T01:14:59;13.30;;;8.77;;
14698;SDS011;7439;50.804;4.602;2024-01-15T01:17:26;13.00;;;8.97;;
14698;SDS011;7439;50.804;4.602;2024-01-15T01:19:57;9.00;;;8.10;;
14698;SDS011;7439;50.804;4.602;2024-01-15T01:22:24;8.50;;;7.20;;
14698;SDS011;7439;50.804;4.602;2024-01-15T01:24:51;10.23;;;7.23;;
14698;SDS011;7439;50.804;4.602;2024-01-15T01:27:18;8.87;;;7.60;;
14698;SDS011;7439;50.804;4.602;2024-01-15T01:29:46;9.23;;;7.10;;
14698;SDS011;7439;50.804;4.602;2024-01-15T01:32:13;8.23;;;7.43;;
14698;SDS011;7439;50.804;4.602;2024-01-15T01:34:40;9.00;;;6.77;;
14698;SDS011;7439;50.804;4.602;2024-01-15T01:37:09;8.83;;;6.47;;
14698;SDS011;7439;50.804;4.602;2024-01-15T01:39:38;9.63;;;7.40;;
14698;SDS011;7439;50.804;4.602;2024-01-15T01:42:05;7.83;;;7.03;;
14698;SDS011;7439;50.804;4.602;2024-01-15T01:44:32;11.87;;;7.97;;
14698;SDS011;7439;50.804;4.602;2024-01-15T01:47:00;8.63;;;6.53;;
14698;SDS011;7439;50.804;4.602;2024-01-15T01:49:28;8.07;;;6.43;;
14698;SDS011;7439;50.804;4.602;2024-01-15T01:51:57;7.77;;;6.83;;
14698;SDS011;7439;50.804;4.602;2024-01-15T01:54:26;8.47;;;7.50;;
14698;SDS011;7439;50.804;4.602;2024-01-15T01:56:55;9.20;;;6.60;;
14698;SDS011;7439;50.804;4.602;2024-01-15T01:59:23;8.30;;;6.50;;
14698;SDS011;7439;50.804;4.602;2024-01-15T02:01:52;8.60;;;7.40;;
14698;SDS011;7439;50.804;4.602;2024-01-15T02:04:21;7.03;;;5.97;;
14698;SDS011;7439;50.804;4.602;2024-01-15T02:06:49;7.50;;;6.80;;
14698;SDS011;7439;50.804;4.602;2024-01-15T02:09:16;9.70;;;6.77;;
14698;SDS011;7439;50.804;4.602;2024-01-15T02:11:47;10.70;;;7.10;;
14698;SDS011;7439;50.804;4.602;2024-01-15T02:14:14;12.13;;;7.40;;
14698;SDS011;7439;50.804;4.602;2024-01-15T02:16:42;7.83;;;6.33;;
14698;SDS011;7439;50.804;4.602;2024-01-15T02:19:14;8.77;;;6.60;;
14698;SDS011;7439;50.804;4.602;2024-01-15T02:21:42;7.63;;;6.57;;
14698;SDS011;7439;50.804;4.602;2024-01-15T02:24:10;6.57;;;5.67;;
14698;SDS011;7439;50.804;4.602;2024-01-15T02:26:38;6.70;;;5.93;;
14698;SDS011;7439;50.804;4.602;2024-01-15T02:29:05;7.33;;;5.87;;
14698;SDS011;7439;50.804;4.602;2024-01-15T02:31:34;6.27;;;5.67;;
14698;SDS011;7439;50.804;4.602;2024-01-15T02:34:01;8.90;;;6.03;;
14698;SDS011;7439;50.804;4.602;2024-01-15T02:36:29;10.10;;;5.57;;
14698;SDS011;7439;50.804;4.602;2024-01-15T02:38:56;6.40;;;5.77;;
14698;SDS011;7439;50.804;4.602;2024-01-15T02:41:25;5.77;;;5.17;;
14698;SDS011;7439;50.804;4.602;2024-01-15T02:43:52;6.40;;;5.70;;
14698;SDS011;7439;50.804;4.602;2024-01-15T02:46:19;7.80;;;5.67;;
14698;SDS011;7439;50.804;4.602;2024-01-15T02:48:47;5.97;;;5.37;;
14698;SDS011;7439;50.804;4.602;2024-01-15T02:51:14;6.90;;;5.20;;
14698;SDS011;7439;50.804;4.602;2024-01-15T02:53:41;6.10;;;5.23;;
14698;SDS011;7439;50.804;4.602;2024-01-15T02:56:08;4.87;;;4.37;;
14698;SDS011;7439;50.804;4.602;2024-01-15T02:58:37;4.77;;;4.37;;
14698;SDS011;7439;50.804;4.602;2024-01-15T03:01:04;5.37;;;4.47;;
14698;SDS011;7439;50.804;4.602;2024-01-15T03:03:32;5.50;;;4.27;;
14698;SDS011;7439;50.804;4.602;2024-01-15T03:05:59;7.00;;;5.57;;
14698;SDS011;7439;50.804;4.602;2024-01-15T03:08:26;6.17;;;5.00;;
14698;SDS011;7439;50.804;4.602;2024-01-15T03:10:54;8.40;;;5.80;;
14698;SDS011;7439;50.804;4.602;2024-01-15T03:13:21;8.20;;;5.60;;
14698;SDS011;7439;50.804;4.602;2024-01-15T03:15:50;5.73;;;4.93;;
14698;SDS011;7439;50.804;4.602;2024-01-15T03:18:17;7.13;;;5.83;;
14698;SDS011;7439;50.804;4.602;2024-01-15T03:20:44;6.07;;;5.30;;
14698;SDS011;7439;50.804;4.602;2024-01-15T03:23:11;6.20;;;5.60;;
14698;SDS011;7439;50.804;4.602;2024-01-15T03:25:39;6.23;;;5.63;;
14698;SDS011;7439;50.804;4.602;2024-01-15T03:28:06;7.57;;;6.30;;
14698;SDS011;7439;50.804;4.602;2024-01-15T03:30:33;7.30;;;6.17;;
14698;SDS011;7439;50.804;4.602;2024-01-15T03:33:02;7.53;;;6.67;;
14698;SDS011;7439;50.804;4.602;2024-01-15T03:35:29;8.70;;;6.93;;
14698;SDS011;7439;50.804;4.602;2024-01-15T03:37:57;9.77;;;7.63;;
14698;SDS011;7439;50.804;4.602;2024-01-15T03:40:24;10.10;;;8.07;;
14698;SDS011;7439;50.804;4.602;2024-01-15T03:42:51;8.83;;;6.70;;
14698;SDS011;7439;50.804;4.602;2024-01-15T03:45:19;11.13;;;7.40;;
14698;SDS011;7439;50.804;4.602;2024-01-15T03:47:46;10.67;;;8.63;;
14698;SDS011;7439;50.804;4.602;2024-01-15T03:50:15;9.40;;;7.90;;
14698;SDS011;7439;50.804;4.602;2024-01-15T03:52:42;11.27;;;8.77;;
14698;SDS011;7439;50.804;4.602;2024-01-15T03:55:09;11.40;;;8.47;;
14698;SDS011;7439;50.804;4.602;2024-01-15T03:57:37;12.40;;;9.50;;
14698;SDS011;7439;50.804;4.602;2024-01-15T04:00:04;12.47;;;9.07;;
14698;SDS011;7439;50.804;4.602;2024-01-15T04:02:32;11.37;;;8.90;;
14698;SDS011;7439;50.804;4.602;2024-01-15T04:04:59;10.37;;;9.10;;
14698;SDS011;7439;50.804;4.602;2024-01-15T04:07:28;11.03;;;9.83;;
14698;SDS011;7439;50.804;4.602;2024-01-15T04:09:55;12.33;;;9.67;;
14698;SDS011;7439;50.804;4.602;2024-01-15T04:12:22;12.13;;;10.83;;
14698;SDS011;7439;50.804;4.602;2024-01-15T04:14:50;14.13;;;9.87;;
14698;SDS011;7439;50.804;4.602;2024-01-15T04:17:17;12.27;;;9.67;;
14698;SDS011;7439;50.804;4.602;2024-01-15T04:19:44;15.10;;;10.50;;
14698;SDS011;7439;50.804;4.602;2024-01-15T04:22:13;12.73;;;10.40;;
14698;SDS011;7439;50.804;4.602;2024-01-15T04:24:41;13.93;;;9.97;;
14698;SDS011;7439;50.804;4.602;2024-01-15T04:27:09;15.20;;;10.47;;
14698;SDS011;7439;50.804;4.602;2024-01-15T04:29:37;13.03;;;10.43;;
14698;SDS011;7439;50.804;4.602;2024-01-15T04:32:05;11.63;;;9.73;;
14698;SDS011;7439;50.804;4.602;2024-01-15T04:34:32;13.37;;;10.73;;
14698;SDS011;7439;50.804;4.602;2024-01-15T04:37:00;12.03;;;10.63;;
14698;SDS011;7439;50.804;4.602;2024-01-15T04:39:27;10.93;;;9.70;;
14698;SDS011;7439;50.804;4.602;2024-01-15T04:41:55;12.17;;;9.83;;
14698;SDS011;7439;50.804;4.602;2024-01-15T04:44:23;12.07;;;10.00;;
14698;SDS011;7439;50.804;4.602;2024-01-15T04:46:50;12.97;;;10.30;;
14698;SDS011;7439;50.804;4.602;2024-01-15T04:49:17;14.90;;;11.37;;
14698;SDS011;7439;50.804;4.602;2024-01-15T04:51:44;12.80;;;10.53;;
14698;SDS011;7439;50.804;4.602;2024-01-15T04:54:13;12.83;;;10.27;;
14698;SDS011;7439;50.804;4.602;2024-01-15T04:56:42;10.50;;;9.40;;
14698;SDS011;7439;50.804;4.602;2024-01-15T04:59:11;10.63;;;9.20;;
14698;SDS011;7439;50.804;4.602;2024-01-15T05:01:39;11.73;;;9.57;;
14698;SDS011;7439;50.804;4.602;2024-01-15T05:04:07;12.47;;;10.17;;
14698;SDS011;7439;50.804;4.602;2024-01-15T05:06:34;12.93;;;9.67;;
14698;SDS011;7439;50.804;4.602;2024-01-15T05:09:01;10.33;;;8.57;;
14698;SDS011;7439;50.804;4.602;2024-01-15T05:11:29;11.60;;;9.50;;
14698;SDS011;7439;50.804;4.602;2024-01-15T05:13:56;10.90;;;9.77;;
14698;SDS011;7439;50.804;4.602;2024-01-15T05:16:25;10.00;;;8.23;;
14698;SDS011;7439;50.804;4.602;2024-01-15T05:18:52;10.30;;;9.30;;
14698;SDS011;7439;50.804;4.602;2024-01-15T05:21:19;10.07;;;8.40;;
14698;SDS011;7439;50.804;4.602;2024-01-15T05:23:46;11.00;;;7.63;;
14698;SDS011;7439;50.804;4.602;2024-01-15T05:26:14;7.57;;;6.40;;
14698;SDS011;7439;50.804;4.602;2024-01-15T05:28:41;7.97;;;6.23;;
14698;SDS011;7439;50.804;4.602;2024-01-15T05:31:09;6.90;;;5.97;;
14698;SDS011;7439;50.804;4.602;2024-01-15T05:33:38;6.53;;;4.87;;
14698;SDS011;7439;50.804;4.602;2024-01-15T05:36:05;5.13;;;4.50;;
14698;SDS011;7439;50.804;4.602;2024-01-15T05:38:33;4.70;;;3.90;;
14698;SDS011;7439;50.804;4.602;2024-01-15T05:41:00;4.13;;;3.73;;
14698;SDS011;7439;50.804;4.602;2024-01-15T05:43:27;4.07;;;3.70;;
14698;SDS011;7439;50.804;4.602;2024-01-15T05:45:55;3.70;;;3.40;;
14698;SDS011;7439;50.804;4.602;2024-01-15T05:48:22;3.60;;;3.30;;
14698;SDS011;7439;50.804;4.602;2024-01-15T05:50:50;3.63;;;2.90;;
14698;SDS011;7439;50.804;4.602;2024-01-15T05:53:18;3.23;;;2.80;;
14698;SDS011;7439;50.804;4.602;2024-01-15T05:55:45;5.03;;;4.60;;
14698;SDS011;7439;50.804;4.602;2024-01-15T05:58:12;3.77;;;3.47;;
14698;SDS011;7439;50.804;4.602;2024-01-15T06:00:40;3.23;;;2.93;;
14698;SDS011;7439;50.804;4.602;2024-01-15T06:03:07;3.60;;;3.30;;
14698;SDS011;7439;50.804;4.602;2024-01-15T06:05:34;2.90;;;2.60;;
14698;SDS011;7439;50.804;4.602;2024-01-15T06:08:03;3.10;;;2.80;;
14698;SDS011;7439;50.804;4.602;2024-01-15T06:10:30;2.93;;;2.57;;
14698;SDS011;7439;50.804;4.602;2024-01-15T06:12:58;2.33;;;2.13;;
14698;SDS011;7439;50.804;4.602;2024-01-15T06:15:25;2.93;;;2.17;;
14698;SDS011;7439;50.804;4.602;2024-01-15T06:17:52;2.73;;;2.53;;
14698;SDS011;7439;50.804;4.602;2024-01-15T06:20:20;2.77;;;2.57;;
14698;SDS011;7439;50.804;4.602;2024-01-15T06:22:47;3.13;;;2.93;;
14698;SDS011;7439;50.804;4.602;2024-01-15T06:25:16;4.27;;;3.20;;
14698;SDS011;7439;50.804;4.602;2024-01-15T06:27:43;3.40;;;3.10;;
14698;SDS011;7439;50.804;4.602;2024-01-15T06:30:11;6.33;;;3.07;;
14698;SDS011;7439;50.804;4.602;2024-01-15T06:32:39;4.60;;;2.90;;
14698;SDS011;7439;50.804;4.602;2024-01-15T06:35:06;3.17;;;2.90;;
14698;SDS011;7439;50.804;4.602;2024-01-15T06:37:35;3.37;;;2.70;;
14698;SDS011;7439;50.804;4.602;2024-01-15T06:40:03;3.23;;;2.93;;
14698;SDS011;7439;50.804;4.602;2024-01-15T06:42:32;2.90;;;2.70;;
14698;SDS011;7439;50.804;4.602;2024-01-15T06:44:59;3.43;;;2.30;;
14698;SDS011;7439;50.804;4.602;2024-01-15T06:47:26;3.70;;;2.50;;
14698;SDS011;7439;50.804;4.602;2024-01-15T06:49:54;3.23;;;2.30;;
14698;SDS011;7439;50.804;4.602;2024-01-15T06:52:21;3.53;;;2.50;;
14698;SDS011;7439;50.804;4.602;2024-01-15T06:54:49;3.20;;;3.00;;
14698;SDS011;7439;50.804;4.602;2024-01-15T06:57:16;3.20;;;2.97;;
14698;SDS011;7439;50.804;4.602;2024-01-15T06:59:46;2.90;;;2.70;;
14698;SDS011;7439;50.804;4.602;2024-01-15T07:02:14;2.77;;;2.50;;
14698;SDS011;7439;50.804;4.602;2024-01-15T07:04:41;2.93;;;2.60;;
14698;SDS011;7439;50.804;4.602;2024-01-15T07:07:08;3.17;;;2.87;;
14698;SDS011;7439;50.804;4.602;2024-01-15T07:09:35;2.97;;;2.73;;
14698;SDS011;7439;50.804;4.602;2024-01-15T07:12:03;3.53;;;2.70;;
14698;SDS011;7439;50.804;4.602;2024-01-15T07:14:30;2.87;;;2.60;;
14698;SDS011;7439;50.804;4.602;2024-01-15T07:16:59;3.50;;;3.20;;
14698;SDS011;7439;50.804;4.602;2024-01-15T07:19:26;3.77;;;3.43;;
14698;SDS011;7439;50.804;4.602;2024-01-15T07:21:54;3.07;;;2.77;;
14698;SDS011;7439;50.804;4.602;2024-01-15T07:24:21;3.57;;;3.27;;
14698;SDS011;7439;50.804;4.602;2024-01-15T07:26:48;4.53;;;3.90;;
14698;SDS011;7439;50.804;4.602;2024-01-15T07:29:16;4.63;;;3.30;;
14698;SDS011;7439;50.804;4.602;2024-01-15T07:31:47;2.47;;;2.27;;
14698;SDS011;7439;50.804;4.602;2024-01-15T07:34:15;3.77;;;3.23;;
14698;SDS011;7439;50.804;4.602;2024-01-15T07:36:43;3.33;;;3.03;;
14698;SDS011;7439;50.804;4.602;2024-01-15T07:39:11;3.87;;;3.40;;
14698;SDS011;7439;50.804;4.602;2024-01-15T07:41:38;3.77;;;3.17;;
14698;SDS011;7439;50.804;4.602;2024-01-15T07:44:06;3.57;;;3.10;;
14698;SDS011;7439;50.804;4.602;2024-01-15T07:46:33;7.60;;;3.73;;
14698;SDS011;7439;50.804;4.602;2024-01-15T07:49:00;3.97;;;3.20;;
14698;SDS011;7439;50.804;4.602;2024-01-15T07:51:30;4.73;;;3.43;;
14698;SDS011;7439;50.804;4.602;2024-01-15T07:53:57;3.57;;;3.20;;
14698;SDS011;7439;50.804;4.602;2024-01-15T07:56:25;4.07;;;3.67;;
14698;SDS011;7439;50.804;4.602;2024-01-15T07:58:53;3.87;;;3.57;;
14698;SDS011;7439;50.804;4.602;2024-01-15T08:01:21;4.53;;;4.13;;
14698;SDS011;7439;50.804;4.602;2024-01-15T08:03:48;4.67;;;4.27;;
14698;SDS011;7439;50.804;4.602;2024-01-15T08:06:15;4.90;;;4.40;;
14698;SDS011;7439;50.804;4.602;2024-01-15T08:08:44;4.67;;;4.27;;
14698;SDS011;7439;50.804;4.602;2024-01-15T08:11:11;4.67;;;4.27;;
14698;SDS011;7439;50.804;4.602;2024-01-15T08:13:38;4.43;;;4.03;;
14698;SDS011;7439;50.804;4.602;2024-01-15T08:16:06;5.00;;;4.60;;
14698;SDS011;7439;50.804;4.602;2024-01-15T08:18:33;6.03;;;4.97;;
14698;SDS011;7439;50.804;4.602;2024-01-15T08:21:00;5.70;;;5.10;;
14698;SDS011;7439;50.804;4.602;2024-01-15T08:23:28;4.43;;;4.07;;
14698;SDS011;7439;50.804;4.602;2024-01-15T08:25:57;5.03;;;4.20;;
14698;SDS011;7439;50.804;4.602;2024-01-15T08:28:25;4.40;;;4.10;;
14698;SDS011;7439;50.804;4.602;2024-01-15T08:30:52;4.93;;;4.30;;
14698;SDS011;7439;50.804;4.602;2024-01-15T08:33:19;6.43;;;4.67;;
14698;SDS011;7439;50.804;4.602;2024-01-15T08:35:47;5.90;;;4.23;;
14698;SDS011;7439;50.804;4.602;2024-01-15T08:38:14;6.93;;;4.90;;
14698;SDS011;7439;50.804;4.602;2024-01-15T08:40:42;6.87;;;4.97;;
14698;SDS011;7439;50.804;4.602;2024-01-15T08:43:11;5.30;;;4.77;;
14698;SDS011;7439;50.804;4.602;2024-01-15T08:45:38;4.77;;;4.30;;
14698;SDS011;7439;50.804;4.602;2024-01-15T08:48:05;5.37;;;4.30;;
14698;SDS011;7439;50.804;4.602;2024-01-15T08:50:33;6.27;;;5.63;;
14698;SDS011;7439;50.804;4.602;2024-01-15T08:53:00;9.90;;;5.23;;
14698;SDS011;7439;50.804;4.602;2024-01-15T08:55:28;10.93;;;4.80;;
14698;SDS011;7439;50.804;4.602;2024-01-15T08:57:55;6.80;;;5.37;;
14698;SDS011;7439;50.804;4.602;2024-01-15T09:00:24;8.07;;;4.77;;
14698;SDS011;7439;50.804;4.602;2024-01-15T09:02:51;7.70;;;5.00;;
14698;SDS011;7439;50.804;4.602;2024-01-15T09:05:19;7.33;;;5.13;;
14698;SDS011;7439;50.804;4.602;2024-01-15T09:07:46;6.27;;;5.43;;
14698;SDS011;7439;50.804;4.602;2024-01-15T09:10:14;7.57;;;5.83;;
14698;SDS011;7439;50.804;4.602;2024-01-15T09:12:41;6.03;;;5.40;;
14698;SDS011;7439;50.804;4.602;2024-01-15T09:15:08;8.23;;;6.17;;
14698;SDS011;7439;50.804;4.602;2024-01-15T09:17:37;6.67;;;5.73;;
14698;SDS011;7439;50.804;4.602;2024-01-15T09:20:05;7.37;;;6.53;;
14698;SDS011;7439;50.804;4.602;2024-01-15T09:22:33;10.33;;;6.60;;
14698;SDS011;7439;50.804;4.602;2024-01-15T09:25:00;10.47;;;7.00;;
14698;SDS011;7439;50.804;4.602;2024-01-15T09:27:27;7.47;;;6.87;;
14698;SDS011;7439;50.804;4.602;2024-01-15T09:29:54;10.40;;;6.83;;
14698;SDS011;7439;50.804;4.602;2024-01-15T09:32:22;7.00;;;6.33;;
14698;SDS011;7439;50.804;4.602;2024-01-15T09:34:51;8.20;;;5.47;;
14698;SDS011;7439;50.804;4.602;2024-01-15T09:37:18;4.90;;;4.47;;
14698;SDS011;7439;50.804;4.602;2024-01-15T09:39:45;8.83;;;4.37;;
14698;SDS011;7439;50.804;4.602;2024-01-15T09:42:13;5.97;;;3.97;;
14698;SDS011;7439;50.804;4.602;2024-01-15T09:44:41;7.83;;;4.47;;
14698;SDS011;7439;50.804;4.602;2024-01-15T09:47:08;6.57;;;4.60;;
14698;SDS011;7439;50.804;4.602;2024-01-15T09:49:36;7.53;;;3.63;;
14698;SDS011;7439;50.804;4.602;2024-01-15T09:52:07;8.63;;;4.27;;
14698;SDS011;7439;50.804;4.602;2024-01-15T09:54:34;3.83;;;3.27;;
14698;SDS011;7439;50.804;4.602;2024-01-15T09:57:01;6.97;;;3.20;;
14698;SDS011;7439;50.804;4.602;2024-01-15T09:59:30;6.30;;;2.87;;
14698;SDS011;7439;50.804;4.602;2024-01-15T10:01:58;6.63;;;2.80;;
14698;SDS011;7439;50.804;4.602;2024-01-15T10:04:25;9.17;;;3.57;;
14698;SDS011;7439;50.804;4.602;2024-01-15T10:06:53;6.00;;;2.87;;
14698;SDS011;7439;50.804;4.602;2024-01-15T10:09:24;3.40;;;2.20;;
14698;SDS011;7439;50.804;4.602;2024-01-15T10:11:51;7.63;;;2.40;;
14698;SDS011;7439;50.804;4.602;2024-01-15T10:14:19;3.43;;;1.93;;
14698;SDS011;7439;50.804;4.602;2024-01-15T10:16:46;5.03;;;2.53;;
14698;SDS011;7439;50.804;4.602;2024-01-15T10:19:13;3.20;;;1.80;;
14698;SDS011;7439;50.804;4.602;2024-01-15T10:21:41;3.60;;;2.37;;
14698;SDS011;7439;50.804;4.602;2024-01-15T10:24:08;6.07;;;2.27;;
14698;SDS011;7439;50.804;4.602;2024-01-15T10:26:37;4.50;;;2.40;;
14698;SDS011;7439;50.804;4.602;2024-01-15T10:29:04;2.03;;;1.70;;
14698;SDS011;7439;50.804;4.602;2024-01-15T10:31:31;5.33;;;2.40;;
14698;SDS011;7439;50.804;4.602;2024-01-15T10:34:09;4.07;;;2.37;;
14698;SDS011;7439;50.804;4.602;2024-01-15T10:36:38;3.80;;;2.40;;
14698;SDS011;7439;50.804;4.602;2024-01-15T10:39:06;3.80;;;2.10;;
14698;SDS011;7439;50.804;4.602;2024-01-15T10:41:33;3.77;;;2.10;;
14698;SDS011;7439;50.804;4.602;2024-01-15T10:44:02;3.73;;;2.37;;
14698;SDS011;7439;50.804;4.602;2024-01-15T10:46:30;5.93;;;3.00;;
14698;SDS011;7439;50.804;4.602;2024-01-15T10:48:57;4.53;;;2.30;;
14698;SDS011;7439;50.804;4.602;2024-01-15T10:51:24;8.33;;;2.80;;
14698;SDS011;7439;50.804;4.602;2024-01-15T10:53:52;8.33;;;2.73;;
14698;SDS011;7439;50.804;4.602;2024-01-15T10:56:21;4.53;;;2.40;;
14698;SDS011;7439;50.804;4.602;2024-01-15T10:58:50;5.53;;;2.30;;
14698;SDS011;7439;50.804;4.602;2024-01-15T11:01:18;6.20;;;2.27;;
14698;SDS011;7439;50.804;4.602;2024-01-15T11:03:46;5.40;;;3.13;;
14698;SDS011;7439;50.804;4.602;2024-01-15T11:06:16;3.70;;;2.20;;
14698;SDS011;7439;50.804;4.602;2024-01-15T11:08:45;4.57;;;2.60;;
14698;SDS011;7439;50.804;4.602;2024-01-15T11:11:12;4.43;;;2.20;;
14698;SDS011;7439;50.804;4.602;2024-01-15T11:13:40;2.60;;;2.00;;
14698;SDS011;7439;50.804;4.602;2024-01-15T11:16:09;4.37;;;2.50;;
14698;SDS011;7439;50.804;4.602;2024-01-15T11:18:39;3.83;;;2.17;;
14698;SDS011;7439;50.804;4.602;2024-01-15T11:21:20;3.43;;;2.13;;
14698;SDS011;7439;50.804;4.602;2024-01-15T11:23:47;3.17;;;1.80;;
14698;SDS011;7439;50.804;4.602;2024-01-15T11:26:27;6.07;;;2.57;;
14698;SDS011;7439;50.804;4.602;2024-01-15T11:28:55;3.50;;;1.80;;
14698;SDS011;7439;50.804;4.602;2024-01-15T11:31:26;5.00;;;2.27;;
14698;SDS011;7439;50.804;4.602;2024-01-15T11:33:54;3.97;;;2.37;;
14698;SDS011;7439;50.804;4.602;2024-01-15T11:36:28;2.73;;;1.83;;
14698;SDS011;7439;50.804;4.602;2024-01-15T11:42:02;3.37;;;2.00;;
14698;SDS011;7439;50.804;4.602;2024-01-15T11:44:30;3.63;;;2.20;;
14698;SDS011;7439;50.804;4.602;2024-01-15T11:46:57;6.37;;;2.50;;
14698;SDS011;7439;50.804;4.602;2024-01-15T11:52:11;2.40;;;1.83;;
14698;SDS011;7439;50.804;4.602;2024-01-15T11:54:38;3.27;;;1.60;;
14698;SDS011;7439;50.804;4.602;2024-01-15T11:57:08;5.63;;;2.10;;
14698;SDS011;7439;50.804;4.602;2024-01-15T11:59:37;3.80;;;2.20;;
14698;SDS011;7439;50.804;4.602;2024-01-15T12:02:04;7.37;;;2.27;;
14698;SDS011;7439;50.804;4.602;2024-01-15T12:04:33;5.20;;;1.93;;
14698;SDS011;7439;50.804;4.602;2024-01-15T12:07:01;2.13;;;1.87;;
14698;SDS011;7439;50.804;4.602;2024-01-15T12:09:29;2.20;;;1.43;;
14698;SDS011;7439;50.804;4.602;2024-01-15T12:11:57;4.63;;;1.73;;
14698;SDS011;7439;50.804;4.602;2024-01-15T12:14:27;3.07;;;1.57;;
14698;SDS011;7439;50.804;4.602;2024-01-15T12:16:55;7.30;;;2.03;;
14698;SDS011;7439;50.804;4.602;2024-01-15T12:19:22;5.17;;;1.77;;
14698;SDS011;7439;50.804;4.602;2024-01-15T12:21:51;3.87;;;1.67;;
14698;SDS011;7439;50.804;4.602;2024-01-15T12:24:19;4.17;;;1.90;;
14698;SDS011;7439;50.804;4.602;2024-01-15T12:26:46;9.67;;;1.97;;
14698;SDS011;7439;50.804;4.602;2024-01-15T12:29:13;7.87;;;2.93;;
14698;SDS011;7439;50.804;4.602;2024-01-15T12:31:40;5.97;;;2.37;;
14698;SDS011;7439;50.804;4.602;2024-01-15T12:34:08;2.73;;;2.00;;
14698;SDS011;7439;50.804;4.602;2024-01-15T12:36:35;5.07;;;2.23;;
14698;SDS011;7439;50.804;4.602;2024-01-15T12:39:04;7.43;;;2.07;;
14698;SDS011;7439;50.804;4.602;2024-01-15T12:41:33;2.23;;;1.50;;
14698;SDS011;7439;50.804;4.602;2024-01-15T12:44:00;3.23;;;1.60;;
14698;SDS011;7439;50.804;4.602;2024-01-15T12:46:28;4.77;;;1.73;;
14698;SDS011;7439;50.804;4.602;2024-01-15T12:48:55;4.47;;;2.22;;
14698;SDS011;7439;50.804;4.602;2024-01-15T12:51:24;5.07;;;2.07;;
14698;SDS011;7439;50.804;4.602;2024-01-15T12:53:52;2.53;;;1.67;;
14698;SDS011;7439;50.804;4.602;2024-01-15T12:56:21;2.93;;;1.50;;
14698;SDS011;7439;50.804;4.602;2024-01-15T12:58:48;3.90;;;1.80;;
14698;SDS011;7439;50.804;4.602;2024-01-15T13:01:16;5.07;;;2.37;;
14698;SDS011;7439;50.804;4.602;2024-01-15T13:03:43;7.57;;;2.83;;
14698;SDS011;7439;50.804;4.602;2024-01-15T13:06:10;4.80;;;2.80;;
14698;SDS011;7439;50.804;4.602;2024-01-15T13:08:38;5.83;;;2.90;;
14698;SDS011;7439;50.804;4.602;2024-01-15T13:11:05;3.77;;;2.43;;
14698;SDS011;7439;50.804;4.602;2024-01-15T13:13:34;5.00;;;2.33;;
14698;SDS011;7439;50.804;4.602;2024-01-15T13:16:01;5.90;;;2.43;;
14698;SDS011;7439;50.804;4.602;2024-01-15T13:18:28;5.50;;;2.73;;
14698;SDS011;7439;50.804;4.602;2024-01-15T13:20:56;6.40;;;2.40;;
14698;SDS011;7439;50.804;4.602;2024-01-15T13:23:23;5.23;;;2.40;;
14698;SDS011;7439;50.804;4.602;2024-01-15T13:25:50;2.97;;;2.30;;
14698;SDS011;7439;50.804;4.602;2024-01-15T13:28:17;7.07;;;2.63;;
14698;SDS011;7439;50.804;4.602;2024-01-15T13:30:47;3.63;;;1.70;;
14698;SDS011;7439;50.804;4.602;2024-01-15T13:33:15;5.57;;;2.33;;
14698;SDS011;7439;50.804;4.602;2024-01-15T13:35:43;6.50;;;2.57;;
14698;SDS011;7439;50.804;4.602;2024-01-15T13:38:10;6.00;;;2.20;;
14698;SDS011;7439;50.804;4.602;2024-01-15T13:40:37;3.97;;;2.00;;
14698;SDS011;7439;50.804;4.602;2024-01-15T13:43:05;6.77;;;1.97;;
14698;SDS011;7439;50.804;4.602;2024-01-15T13:45:33;5.50;;;3.13;;
14698;SDS011;7439;50.804;4.602;2024-01-15T13:48:04;5.80;;;2.33;;
14698;SDS011;7439;50.804;4.602;2024-01-15T13:50:31;7.13;;;2.50;;
14698;SDS011;7439;50.804;4.602;2024-01-15T13:52:58;11.13;;;3.00;;
14698;SDS011;7439;50.804;4.602;2024-01-15T13:55:26;4.43;;;2.43;;
14698;SDS011;7439;50.804;4.602;2024-01-15T13:57:54;3.87;;;2.30;;
14698;SDS011;7439;50.804;4.602;2024-01-15T14:00:21;5.37;;;2.23;;
14698;SDS011;7439;50.804;4.602;2024-01-15T14:02:50;1.40;;;1.30;;
14698;SDS011;7439;50.804;4.602;2024-01-15T14:05:19;1.07;;;1.07;;
14698;SDS011;7439;50.804;4.602;2024-01-15T14:07:46;1.60;;;1.50;;
14698;SDS011;7439;50.804;4.602;2024-01-15T14:10:13;1.20;;;1.20;;
14698;SDS011;7439;50.804;4.602;2024-01-15T14:12:41;1.40;;;1.40;;
14698;SDS011;7439;50.804;4.602;2024-01-15T14:15:08;1.13;;;1.03;;
14698;SDS011;7439;50.804;4.602;2024-01-15T14:17:35;1.23;;;1.13;;
14698;SDS011;7439;50.804;4.602;2024-01-15T14:20:03;0.90;;;0.90;;
14698;SDS011;7439;50.804;4.602;2024-01-15T14:22:32;0.90;;;0.90;;
14698;SDS011;7439;50.804;4.602;2024-01-15T14:25:00;1.20;;;1.20;;
14698;SDS011;7439;50.804;4.602;2024-01-15T14:27:28;1.00;;;1.00;;
14698;SDS011;7439;50.804;4.602;2024-01-15T14:29:55;1.20;;;1.10;;
14698;SDS011;7439;50.804;4.602;2024-01-15T14:32:23;1.60;;;1.50;;
14698;SDS011;7439;50.804;4.602;2024-01-15T14:34:50;1.17;;;1.13;;
14698;SDS011;7439;50.804;4.602;2024-01-15T14:37:17;2.27;;;1.60;;
14698;SDS011;7439;50.804;4.602;2024-01-15T14:39:47;1.40;;;1.30;;
14698;SDS011;7439;50.804;4.602;2024-01-15T14:42:14;1.70;;;1.60;;
14698;SDS011;7439;50.804;4.602;2024-01-15T14:44:41;1.60;;;1.50;;
14698;SDS011;7439;50.804;4.602;2024-01-15T14:47:09;1.97;;;1.83;;
14698;SDS011;7439;50.804;4.602;2024-01-15T14:49:36;4.60;;;2.00;;
14698;SDS011;7439;50.804;4.602;2024-01-15T14:52:04;2.00;;;1.80;;
14698;SDS011;7439;50.804;4.602;2024-01-15T14:54:31;1.90;;;1.70;;
14698;SDS011;7439;50.804;4.602;2024-01-15T14:57:00;2.30;;;1.80;;
14698;SDS011;7439;50.804;4.602;2024-01-15T14:59:28;5.13;;;2.67;;
14698;SDS011;7439;50.804;4.602;2024-01-15T15:01:57;1.47;;;1.37;;
14698;SDS011;7439;50.804;4.602;2024-01-15T15:04:24;5.10;;;1.87;;
14698;SDS011;7439;50.804;4.602;2024-01-15T15:06:53;2.67;;;1.67;;